sensor_id;sensor_type;location;lat;lon;timestamp;pressure;altitude;pressure_sealevel;temperature;humidity
57628;BME280;43451;49.060;10.616;2022-07-03T00:00:26;97013.56;;;12.99;92.28
57628;BME280;43451;49.060;10.616;2022-07-03T00:02:51;97020.59;;;13.00;92.44
57628;BME280;43451;49.060;10.616;2022-07-03T00:05:17;97015.50;;;13.02;93.00
57628;BME280;43451;49.060;10.616;2022-07-03T00:07:42;97015.94;;;12.97;93.38
57628;BME280;43451;49.060;10.616;2022-07-03T00:10:08;97022.94;;;12.98;93.51
57628;BME280;43451;49.060;10.616;2022-07-03T00:12:34;97021.06;;;12.88;94.14
57628;BME280;43451;49.060;10.616;2022-07-03T00:14:59;97013.66;;;12.85;94.49
57628;BME280;43451;49.060;10.616;2022-07-03T00:17:25;97007.44;;;12.85;94.04
57628;BME280;43451;49.060;10.616;2022-07-03T00:19:50;97012.91;;;12.81;94.64
57628;BME280;43451;49.060;10.616;2022-07-03T00:22:16;97004.34;;;12.79;93.82
57628;BME280;43451;49.060;10.616;2022-07-03T00:24:51;97014.88;;;12.77;94.15
57628;BME280;43451;49.060;10.616;2022-07-03T00:27:21;97013.75;;;12.71;94.86
57628;BME280;43451;49.060;10.616;2022-07-03T00:29:49;97012.19;;;12.70;94.77
57628;BME280;43451;49.060;10.616;2022-07-03T00:32:25;97012.16;;;12.73;94.78
57628;BME280;43451;49.060;10.616;2022-07-03T00:34:53;97012.94;;;12.74;94.20
57628;BME280;43451;49.060;10.616;2022-07-03T00:37:19;97009.06;;;12.68;94.35
57628;BME280;43451;49.060;10.616;2022-07-03T00:39:45;97010.66;;;12.65;93.98
57628;BME280;43451;49.060;10.616;2022-07-03T00:42:12;97010.28;;;12.63;94.14
57628;BME280;43451;49.060;10.616;2022-07-03T00:44:44;97004.06;;;12.63;94.43
57628;BME280;43451;49.060;10.616;2022-07-03T00:47:11;97009.88;;;12.65;94.37
57628;BME280;43451;49.060;10.616;2022-07-03T00:49:38;97010.66;;;12.69;94.26
57628;BME280;43451;49.060;10.616;2022-07-03T00:52:05;97013.03;;;12.60;94.85
57628;BME280;43451;49.060;10.616;2022-07-03T00:54:33;97005.66;;;12.53;94.90
57628;BME280;43451;49.060;10.616;2022-07-03T00:57:00;97014.56;;;12.61;94.84
57628;BME280;43451;49.060;10.616;2022-07-03T00:59:26;97002.94;;;12.53;95.37
57628;BME280;43451;49.060;10.616;2022-07-03T01:01:54;97000.56;;;12.59;95.38
57628;BME280;43451;49.060;10.616;2022-07-03T01:07:18;97001.38;;;12.52;95.66
57628;BME280;43451;49.060;10.616;2022-07-03T01:12:30;96998.63;;;12.55;94.95
57628;BME280;43451;49.060;10.616;2022-07-03T01:15:12;96997.50;;;12.49;94.72
57628;BME280;43451;49.060;10.616;2022-07-03T01:17:53;97002.56;;;12.47;94.75
57628;BME280;43451;49.060;10.616;2022-07-03T01:20:27;96995.19;;;12.44;95.23
57628;BME280;43451;49.060;10.616;2022-07-03T01:22:55;96988.22;;;12.36;95.30
57628;BME280;43451;49.060;10.616;2022-07-03T01:28:13;96996.84;;;12.17;96.09
57628;BME280;43451;49.060;10.616;2022-07-03T01:30:43;96978.94;;;12.23;96.40
57628;BME280;43451;49.060;10.616;2022-07-03T01:33:19;96983.19;;;12.24;96.12
57628;BME280;43451;49.060;10.616;2022-07-03T01:36:07;96980.47;;;12.24;96.26
57628;BME280;43451;49.060;10.616;2022-07-03T01:38:37;96977.34;;;12.32;96.01
57628;BME280;43451;49.060;10.616;2022-07-03T01:41:05;96985.56;;;12.22;95.81
57628;BME280;43451;49.060;10.616;2022-07-03T01:43:56;96982.84;;;12.22;96.59
57628;BME280;43451;49.060;10.616;2022-07-03T01:46:21;96978.19;;;12.19;96.37
57628;BME280;43451;49.060;10.616;2022-07-03T01:48:54;96978.91;;;12.30;96.09
57628;BME280;43451;49.060;10.616;2022-07-03T01:51:20;96974.63;;;12.29;96.42
57628;BME280;43451;49.060;10.616;2022-07-03T01:53:49;96979.69;;;12.27;96.43
57628;BME280;43451;49.060;10.616;2022-07-03T01:56:16;96975.03;;;12.27;96.43
57628;BME280;43451;49.060;10.616;2022-07-03T01:58:42;96966.84;;;12.31;96.22
57628;BME280;43451;49.060;10.616;2022-07-03T02:03:51;96962.19;;;12.28;96.62
57628;BME280;43451;49.060;10.616;2022-07-03T02:06:29;96970.38;;;12.28;96.37
57628;BME280;43451;49.060;10.616;2022-07-03T02:09:06;96971.94;;;12.25;96.91
57628;BME280;43451;49.060;10.616;2022-07-03T02:11:34;96966.06;;;12.27;97.00
57628;BME280;43451;49.060;10.616;2022-07-03T02:19:34;96971.16;;;12.25;97.58
57628;BME280;43451;49.060;10.616;2022-07-03T02:22:03;96967.25;;;12.26;96.42
57628;BME280;43451;49.060;10.616;2022-07-03T02:24:41;96971.94;;;12.22;95.78
57628;BME280;43451;49.060;10.616;2022-07-03T02:27:09;96965.31;;;12.23;95.46
57628;BME280;43451;49.060;10.616;2022-07-03T02:29:46;96964.94;;;12.24;96.15
57628;BME280;43451;49.060;10.616;2022-07-03T02:32:17;96977.41;;;12.22;97.14
57628;BME280;43451;49.060;10.616;2022-07-03T02:34:47;96966.50;;;12.22;97.20
57628;BME280;43451;49.060;10.616;2022-07-03T02:37:18;96964.56;;;12.19;97.34
57628;BME280;43451;49.060;10.616;2022-07-03T02:39:51;96968.03;;;12.23;97.37
57628;BME280;43451;49.060;10.616;2022-07-03T02:42:42;96968.44;;;12.21;96.47
57628;BME280;43451;49.060;10.616;2022-07-03T02:45:11;96964.56;;;12.19;96.73
57628;BME280;43451;49.060;10.616;2022-07-03T02:47:47;96970.00;;;12.22;97.40
57628;BME280;43451;49.060;10.616;2022-07-03T02:50:21;96966.50;;;12.22;97.81
57628;BME280;43451;49.060;10.616;2022-07-03T02:53:15;96981.28;;;12.24;97.83
57628;BME280;43451;49.060;10.616;2022-07-03T02:55:46;96984.00;;;12.24;98.20
57628;BME280;43451;49.060;10.616;2022-07-03T03:00:59;96968.41;;;12.28;98.02
57628;BME280;43451;49.060;10.616;2022-07-03T03:03:31;96968.03;;;12.23;98.23
57628;BME280;43451;49.060;10.616;2022-07-03T03:06:19;96967.22;;;12.29;98.01
57628;BME280;43451;49.060;10.616;2022-07-03T03:08:59;96975.41;;;12.29;97.97
57628;BME280;43451;49.060;10.616;2022-07-03T03:11:41;96966.47;;;12.29;97.97
57628;BME280;43451;49.060;10.616;2022-07-03T03:14:10;96973.84;;;12.28;97.67
57628;BME280;43451;49.060;10.616;2022-07-03T03:16:42;96973.50;;;12.23;97.22
57628;BME280;43451;49.060;10.616;2022-07-03T03:19:11;96983.59;;;12.26;97.61
57628;BME280;43451;49.060;10.616;2022-07-03T03:21:45;96978.16;;;12.26;97.86
57628;BME280;43451;49.060;10.616;2022-07-03T03:24:17;96975.81;;;12.21;98.05
57628;BME280;43451;49.060;10.616;2022-07-03T03:26:43;96974.28;;;12.20;97.98
57628;BME280;43451;49.060;10.616;2022-07-03T03:29:08;96986.34;;;12.22;98.54
57628;BME280;43451;49.060;10.616;2022-07-03T03:31:34;96986.72;;;12.21;99.24
57628;BME280;43451;49.060;10.616;2022-07-03T03:34:00;96987.09;;;12.23;99.61
57628;BME280;43451;49.060;10.616;2022-07-03T03:36:25;96986.31;;;12.26;98.99
57628;BME280;43451;49.060;10.616;2022-07-03T03:38:51;96989.44;;;12.28;99.10
57628;BME280;43451;49.060;10.616;2022-07-03T03:41:17;96987.47;;;12.32;99.76
57628;BME280;43451;49.060;10.616;2022-07-03T03:43:42;96984.28;;;12.44;99.53
57628;BME280;43451;49.060;10.616;2022-07-03T03:46:08;96982.28;;;12.55;99.34
57628;BME280;43451;49.060;10.616;2022-07-03T03:48:34;96987.28;;;12.64;99.36
57628;BME280;43451;49.060;10.616;2022-07-03T03:51:00;96984.94;;;12.70;99.55
57628;BME280;43451;49.060;10.616;2022-07-03T03:53:28;96977.13;;;12.75;99.73
57628;BME280;43451;49.060;10.616;2022-07-03T03:55:58;96971.59;;;12.86;99.64
57628;BME280;43451;49.060;10.616;2022-07-03T03:58:24;96981.63;;;12.96;98.90
57628;BME280;43451;49.060;10.616;2022-07-03T04:00:50;96975.44;;;12.92;98.43
57628;BME280;43451;49.060;10.616;2022-07-03T04:03:18;96976.25;;;12.86;99.37
57628;BME280;43451;49.060;10.616;2022-07-03T04:05:43;96984.03;;;12.91;99.21
57628;BME280;43451;49.060;10.616;2022-07-03T04:08:08;96991.81;;;12.89;99.91
57628;BME280;43451;49.060;10.616;2022-07-03T04:10:35;96985.53;;;12.95;99.95
57628;BME280;43451;49.060;10.616;2022-07-03T04:13:00;96986.28;;;12.99;100.00
57628;BME280;43451;49.060;10.616;2022-07-03T04:15:25;96986.22;;;13.10;100.00
57628;BME280;43451;49.060;10.616;2022-07-03T04:17:51;96983.41;;;13.21;100.00
57628;BME280;43451;49.060;10.616;2022-07-03T04:20:17;96985.75;;;13.22;100.00
57628;BME280;43451;49.060;10.616;2022-07-03T04:22:42;96979.88;;;13.24;100.00
57628;BME280;43451;49.060;10.616;2022-07-03T04:25:08;96989.22;;;13.30;100.00
57628;BME280;43451;49.060;10.616;2022-07-03T04:27:33;96986.84;;;13.36;100.00
57628;BME280;43451;49.060;10.616;2022-07-03T04:29:59;96993.41;;;13.42;100.00
57628;BME280;43451;49.060;10.616;2022-07-03T04:32:24;96995.34;;;13.45;100.00
57628;BME280;43451;49.060;10.616;2022-07-03T04:34:49;96991.38;;;13.50;100.00
57628;BME280;43451;49.060;10.616;2022-07-03T04:37:15;96996.41;;;13.55;100.00
57628;BME280;43451;49.060;10.616;2022-07-03T04:39:40;96997.09;;;13.66;100.00
57628;BME280;43451;49.060;10.616;2022-07-03T04:42:06;96992.72;;;13.72;100.00
57628;BME280;43451;49.060;10.616;2022-07-03T04:44:31;96988.81;;;13.73;100.00
57628;BME280;43451;49.060;10.616;2022-07-03T04:46:56;96994.22;;;13.80;100.00
57628;BME280;43451;49.060;10.616;2022-07-03T04:49:22;96992.59;;;13.86;100.00
57628;BME280;43451;49.060;10.616;2022-07-03T04:51:47;97001.09;;;13.92;100.00
57628;BME280;43451;49.060;10.616;2022-07-03T04:54:12;97001.41;;;14.01;99.49
57628;BME280;43451;49.060;10.616;2022-07-03T04:56:38;96997.81;;;14.08;98.94
57628;BME280;43451;49.060;10.616;2022-07-03T04:59:03;97000.44;;;14.19;98.50
57628;BME280;43451;49.060;10.616;2022-07-03T05:01:28;96993.31;;;14.28;98.11
57628;BME280;43451;49.060;10.616;2022-07-03T05:03:54;96998.56;;;14.43;97.25
57628;BME280;43451;49.060;10.616;2022-07-03T05:06:19;97005.09;;;14.56;95.90
57628;BME280;43451;49.060;10.616;2022-07-03T05:08:44;96998.75;;;14.62;95.79
57628;BME280;43451;49.060;10.616;2022-07-03T05:11:10;96998.22;;;14.71;95.26
57628;BME280;43451;49.060;10.616;2022-07-03T05:13:35;97000.16;;;14.74;96.33
57628;BME280;43451;49.060;10.616;2022-07-03T05:16:01;96997.72;;;14.80;96.19
57628;BME280;43451;49.060;10.616;2022-07-03T05:18:26;97012.50;;;14.86;95.19
57628;BME280;43451;49.060;10.616;2022-07-03T05:20:52;97003.78;;;14.95;95.00
57628;BME280;43451;49.060;10.616;2022-07-03T05:23:17;97009.91;;;15.02;95.61
57628;BME280;43451;49.060;10.616;2022-07-03T05:25:42;97006.66;;;15.11;94.01
57628;BME280;43451;49.060;10.616;2022-07-03T05:28:08;97009.22;;;15.22;94.90
57628;BME280;43451;49.060;10.616;2022-07-03T05:30:33;97013.59;;;15.43;93.50
57628;BME280;43451;49.060;10.616;2022-07-03T05:32:59;97011.94;;;15.49;94.76
57628;BME280;43451;49.060;10.616;2022-07-03T05:35:25;97012.88;;;15.62;95.71
57628;BME280;43451;49.060;10.616;2022-07-03T05:37:51;97010.03;;;15.93;93.60
57628;BME280;43451;49.060;10.616;2022-07-03T05:40:16;97010.94;;;16.86;90.23
57628;BME280;43451;49.060;10.616;2022-07-03T05:42:42;97013.78;;;18.68;79.14
57628;BME280;43451;49.060;10.616;2022-07-03T05:45:08;97008.16;;;20.08;74.83
57628;BME280;43451;49.060;10.616;2022-07-03T05:47:34;97014.00;;;21.39;67.25
57628;BME280;43451;49.060;10.616;2022-07-03T05:49:59;97017.19;;;22.42;61.83
57628;BME280;43451;49.060;10.616;2022-07-03T05:52:24;97016.72;;;23.47;56.23
57628;BME280;43451;49.060;10.616;2022-07-03T05:54:50;97020.47;;;24.16;53.97
57628;BME280;43451;49.060;10.616;2022-07-03T05:57:15;97024.03;;;24.31;54.27
57628;BME280;43451;49.060;10.616;2022-07-03T05:59:40;97025.63;;;24.76;52.72
57628;BME280;43451;49.060;10.616;2022-07-03T06:02:06;97019.78;;;25.04;49.84
57628;BME280;43451;49.060;10.616;2022-07-03T06:04:32;97020.72;;;25.31;50.00
57628;BME280;43451;49.060;10.616;2022-07-03T06:06:57;97015.44;;;25.68;47.59
57628;BME280;43451;49.060;10.616;2022-07-03T06:09:23;97019.78;;;26.10;46.46
57628;BME280;43451;49.060;10.616;2022-07-03T06:11:48;97020.56;;;25.90;47.79
57628;BME280;43451;49.060;10.616;2022-07-03T06:14:14;97022.47;;;26.25;46.30
57628;BME280;43451;49.060;10.616;2022-07-03T06:16:40;97025.63;;;26.12;48.89
57628;BME280;43451;49.060;10.616;2022-07-03T06:19:05;97027.44;;;26.15;49.33
57628;BME280;43451;49.060;10.616;2022-07-03T06:21:32;97025.13;;;26.34;49.14
57628;BME280;43451;49.060;10.616;2022-07-03T06:23:57;97032.91;;;26.50;46.41
57628;BME280;43451;49.060;10.616;2022-07-03T06:26:23;97028.28;;;26.47;48.27
57628;BME280;43451;49.060;10.616;2022-07-03T06:28:48;97027.06;;;26.48;48.77
57628;BME280;43451;49.060;10.616;2022-07-03T06:31:14;97029.91;;;26.54;46.47
57628;BME280;43451;49.060;10.616;2022-07-03T06:33:39;97032.16;;;26.09;47.79
57628;BME280;43451;49.060;10.616;2022-07-03T06:36:05;97040.69;;;25.14;49.72
57628;BME280;43451;49.060;10.616;2022-07-03T06:38:30;97039.25;;;24.60;52.17
57628;BME280;43451;49.060;10.616;2022-07-03T06:40:56;97036.84;;;23.90;55.40
57628;BME280;43451;49.060;10.616;2022-07-03T06:43:21;97036.84;;;23.56;56.97
57628;BME280;43451;49.060;10.616;2022-07-03T06:45:46;97039.81;;;23.20;58.71
57628;BME280;43451;49.060;10.616;2022-07-03T06:48:12;97030.06;;;22.73;58.67
57628;BME280;43451;49.060;10.616;2022-07-03T06:50:37;97034.72;;;22.48;61.40
57628;BME280;43451;49.060;10.616;2022-07-03T06:53:03;97025.63;;;22.01;64.86
57628;BME280;43451;49.060;10.616;2022-07-03T06:55:28;97030.88;;;22.09;63.08
57628;BME280;43451;49.060;10.616;2022-07-03T06:57:53;97027.63;;;21.92;63.20
57628;BME280;43451;49.060;10.616;2022-07-03T07:00:19;97038.06;;;21.69;65.98
57628;BME280;43451;49.060;10.616;2022-07-03T07:02:44;97030.19;;;21.68;65.97
57628;BME280;43451;49.060;10.616;2022-07-03T07:05:10;97027.13;;;21.75;64.44
57628;BME280;43451;49.060;10.616;2022-07-03T07:07:35;97019.75;;;21.72;64.92
57628;BME280;43451;49.060;10.616;2022-07-03T07:10:00;97027.44;;;21.77;65.95
57628;BME280;43451;49.060;10.616;2022-07-03T07:12:26;97043.91;;;21.81;66.18
57628;BME280;43451;49.060;10.616;2022-07-03T07:14:51;97031.59;;;21.82;65.28
57628;BME280;43451;49.060;10.616;2022-07-03T07:17:17;97025.47;;;21.87;65.54
57628;BME280;43451;49.060;10.616;2022-07-03T07:19:42;97030.84;;;21.81;67.10
57628;BME280;43451;49.060;10.616;2022-07-03T07:22:08;97019.34;;;21.92;65.80
57628;BME280;43451;49.060;10.616;2022-07-03T07:24:33;97025.19;;;22.12;64.87
57628;BME280;43451;49.060;10.616;2022-07-03T07:26:58;97013.06;;;22.19;64.52
57628;BME280;43451;49.060;10.616;2022-07-03T07:29:24;97019.34;;;22.19;65.23
57628;BME280;43451;49.060;10.616;2022-07-03T07:31:49;97012.13;;;22.22;64.43
57628;BME280;43451;49.060;10.616;2022-07-03T07:34:14;97018.44;;;22.32;63.91
57628;BME280;43451;49.060;10.616;2022-07-03T07:36:40;97013.81;;;22.19;66.74
57628;BME280;43451;49.060;10.616;2022-07-03T07:39:05;97015.81;;;22.28;66.80
57628;BME280;43451;49.060;10.616;2022-07-03T07:41:31;97025.03;;;22.53;62.76
57628;BME280;43451;49.060;10.616;2022-07-03T07:43:56;97019.16;;;22.69;63.61
57628;BME280;43451;49.060;10.616;2022-07-03T07:46:22;97019.13;;;22.78;61.94
57628;BME280;43451;49.060;10.616;2022-07-03T07:48:47;97017.56;;;22.86;61.93
57628;BME280;43451;49.060;10.616;2022-07-03T07:51:13;97022.34;;;22.95;60.48
57628;BME280;43451;49.060;10.616;2022-07-03T07:53:38;97020.91;;;23.09;60.81
57628;BME280;43451;49.060;10.616;2022-07-03T07:56:04;97026.53;;;23.24;60.40
57628;BME280;43451;49.060;10.616;2022-07-03T07:58:29;97024.97;;;23.32;59.62
57628;BME280;43451;49.060;10.616;2022-07-03T08:00:55;97021.25;;;23.35;60.64
57628;BME280;43451;49.060;10.616;2022-07-03T08:03:58;97024.31;;;23.37;61.57
57628;BME280;43451;49.060;10.616;2022-07-03T08:06:42;97020.16;;;23.66;58.05
57628;BME280;43451;49.060;10.616;2022-07-03T08:09:07;97024.91;;;23.74;56.55
57628;BME280;43451;49.060;10.616;2022-07-03T08:11:33;97026.63;;;23.72;59.42
57628;BME280;43451;49.060;10.616;2022-07-03T08:13:58;97022.00;;;23.69;57.90
57628;BME280;43451;49.060;10.616;2022-07-03T08:16:24;97022.94;;;23.66;57.88
57628;BME280;43451;49.060;10.616;2022-07-03T08:18:49;97023.59;;;23.60;57.72
57628;BME280;43451;49.060;10.616;2022-07-03T08:21:14;97013.69;;;23.69;60.22
57628;BME280;43451;49.060;10.616;2022-07-03T08:23:40;97008.09;;;23.78;58.21
57628;BME280;43451;49.060;10.616;2022-07-03T08:26:05;97017.59;;;23.86;56.21
57628;BME280;43451;49.060;10.616;2022-07-03T08:28:30;97012.13;;;23.77;56.29
57628;BME280;43451;49.060;10.616;2022-07-03T08:30:56;97012.28;;;23.73;59.18
57628;BME280;43451;49.060;10.616;2022-07-03T08:33:21;97014.06;;;23.85;56.55
57628;BME280;43451;49.060;10.616;2022-07-03T08:35:47;97021.78;;;24.05;55.05
57628;BME280;43451;49.060;10.616;2022-07-03T08:38:12;97016.22;;;24.05;51.62
57628;BME280;43451;49.060;10.616;2022-07-03T08:40:38;97017.75;;;24.06;51.22
57628;BME280;43451;49.060;10.616;2022-07-03T08:43:05;97019.13;;;24.11;52.84
57628;BME280;43451;49.060;10.616;2022-07-03T08:45:33;97011.47;;;24.21;50.27
57628;BME280;43451;49.060;10.616;2022-07-03T08:47:59;97012.63;;;24.29;49.74
57628;BME280;43451;49.060;10.616;2022-07-03T08:50:25;97013.56;;;24.26;51.44
57628;BME280;43451;49.060;10.616;2022-07-03T08:52:50;97012.06;;;24.25;49.93
57628;BME280;43451;49.060;10.616;2022-07-03T08:55:17;97020.97;;;24.29;52.10
57628;BME280;43451;49.060;10.616;2022-07-03T08:57:44;97007.94;;;24.35;48.81
57628;BME280;43451;49.060;10.616;2022-07-03T09:00:14;97011.75;;;24.62;44.37
57628;BME280;43451;49.060;10.616;2022-07-03T09:02:43;97010.97;;;24.76;46.39
57628;BME280;43451;49.060;10.616;2022-07-03T09:05:10;97015.31;;;24.77;47.02
57628;BME280;43451;49.060;10.616;2022-07-03T09:07:37;97013.09;;;24.81;48.79
57628;BME280;43451;49.060;10.616;2022-07-03T09:10:04;97010.03;;;24.79;51.19
57628;BME280;43451;49.060;10.616;2022-07-03T09:12:31;97005.22;;;24.94;46.18
57628;BME280;43451;49.060;10.616;2022-07-03T09:15:01;97008.19;;;25.20;44.65
57628;BME280;43451;49.060;10.616;2022-07-03T09:17:28;97001.25;;;25.31;45.28
57628;BME280;43451;49.060;10.616;2022-07-03T09:19:53;96998.59;;;25.21;46.85
57628;BME280;43451;49.060;10.616;2022-07-03T09:24:44;96988.72;;;25.20;46.60
57628;BME280;43451;49.060;10.616;2022-07-03T09:27:16;96993.41;;;25.14;45.31
57628;BME280;43451;49.060;10.616;2022-07-03T09:29:58;96991.22;;;25.18;46.80
57628;BME280;43451;49.060;10.616;2022-07-03T09:32:41;96984.88;;;25.18;47.01
57628;BME280;43451;49.060;10.616;2022-07-03T09:35:24;96980.44;;;25.26;45.77
57628;BME280;43451;49.060;10.616;2022-07-03T09:40:20;96984.22;;;25.43;42.44
57628;BME280;43451;49.060;10.616;2022-07-03T09:42:59;96977.91;;;25.43;41.32
57628;BME280;43451;49.060;10.616;2022-07-03T09:45:25;96983.25;;;25.46;42.50
57628;BME280;43451;49.060;10.616;2022-07-03T09:47:50;96982.09;;;25.53;44.94
57628;BME280;43451;49.060;10.616;2022-07-03T09:50:16;96981.47;;;25.64;42.42
57628;BME280;43451;49.060;10.616;2022-07-03T09:52:46;96975.06;;;25.58;45.46
57628;BME280;43451;49.060;10.616;2022-07-03T09:55:18;96975.41;;;25.65;46.73
57628;BME280;43451;49.060;10.616;2022-07-03T10:02:55;96974.50;;;25.74;44.21
57628;BME280;43451;49.060;10.616;2022-07-03T10:05:24;96976.31;;;25.77;43.35
57628;BME280;43451;49.060;10.616;2022-07-03T10:08:01;96981.09;;;25.91;44.62
57628;BME280;43451;49.060;10.616;2022-07-03T10:10:32;96980.81;;;25.89;43.65
57628;BME280;43451;49.060;10.616;2022-07-03T10:12:59;96980.53;;;25.87;45.54
57628;BME280;43451;49.060;10.616;2022-07-03T10:15:26;96976.47;;;26.09;44.07
57628;BME280;43451;49.060;10.616;2022-07-03T10:17:55;96974.72;;;26.11;44.92
57628;BME280;43451;49.060;10.616;2022-07-03T10:20:31;96969.56;;;26.25;44.10
57628;BME280;43451;49.060;10.616;2022-07-03T10:22:59;96977.59;;;26.17;43.95
57628;BME280;43451;49.060;10.616;2022-07-03T10:25:25;96970.59;;;26.27;42.91
57628;BME280;43451;49.060;10.616;2022-07-03T10:27:50;96977.09;;;26.19;43.13
57628;BME280;43451;49.060;10.616;2022-07-03T10:30:17;96970.47;;;26.16;43.22
57628;BME280;43451;49.060;10.616;2022-07-03T10:32:44;96963.38;;;26.41;41.29
57628;BME280;43451;49.060;10.616;2022-07-03T10:35:34;96969.72;;;26.42;43.96
57628;BME280;43451;49.060;10.616;2022-07-03T10:43:33;96956.94;;;26.29;41.17
57628;BME280;43451;49.060;10.616;2022-07-03T10:46:22;96958.19;;;26.28;42.78
57628;BME280;43451;49.060;10.616;2022-07-03T10:51:19;96953.28;;;26.44;42.33
57628;BME280;43451;49.060;10.616;2022-07-03T10:53:44;96960.81;;;26.37;40.97
57628;BME280;43451;49.060;10.616;2022-07-03T10:56:10;96954.44;;;26.57;40.19
57628;BME280;43451;49.060;10.616;2022-07-03T10:58:58;96944.78;;;26.53;42.26
57628;BME280;43451;49.060;10.616;2022-07-03T11:01:28;96946.72;;;26.47;43.30
57628;BME280;43451;49.060;10.616;2022-07-03T11:03:57;96958.78;;;26.64;42.36
57628;BME280;43451;49.060;10.616;2022-07-03T11:09:14;96954.19;;;26.87;40.31
57628;BME280;43451;49.060;10.616;2022-07-03T11:11:43;96953.16;;;26.84;39.73
57628;BME280;43451;49.060;10.616;2022-07-03T11:14:23;96948.06;;;26.83;37.07
57628;BME280;43451;49.060;10.616;2022-07-03T11:17:21;96939.34;;;26.70;42.23
57628;BME280;43451;49.060;10.616;2022-07-03T11:19:48;96945.06;;;26.87;40.75
57628;BME280;43451;49.060;10.616;2022-07-03T11:22:48;96939.72;;;26.89;41.12
57628;BME280;43451;49.060;10.616;2022-07-03T11:25:17;96939.03;;;26.94;43.48
57628;BME280;43451;49.060;10.616;2022-07-03T11:27:42;96936.56;;;27.07;40.86
57628;BME280;43451;49.060;10.616;2022-07-03T11:30:08;96931.03;;;27.13;40.46
57628;BME280;43451;49.060;10.616;2022-07-03T11:32:48;96935.06;;;27.12;42.64
57628;BME280;43451;49.060;10.616;2022-07-03T11:38:07;96928.38;;;27.29;43.04
57628;BME280;43451;49.060;10.616;2022-07-03T11:40:35;96931.94;;;27.36;42.51
57628;BME280;43451;49.060;10.616;2022-07-03T11:43:01;96934.03;;;27.46;39.07
57628;BME280;43451;49.060;10.616;2022-07-03T11:45:29;96932.75;;;27.42;37.74
57628;BME280;43451;49.060;10.616;2022-07-03T11:47:55;96930.09;;;27.21;38.01
57628;BME280;43451;49.060;10.616;2022-07-03T11:50:20;96923.50;;;27.19;40.25
57628;BME280;43451;49.060;10.616;2022-07-03T11:52:46;96914.69;;;27.31;42.53
57628;BME280;43451;49.060;10.616;2022-07-03T11:55:11;96922.78;;;27.29;40.49
57628;BME280;43451;49.060;10.616;2022-07-03T11:57:37;96918.00;;;27.36;37.20
57628;BME280;43451;49.060;10.616;2022-07-03T12:00:04;96910.09;;;27.28;41.47
57628;BME280;43451;49.060;10.616;2022-07-03T12:02:30;96915.44;;;27.32;43.03
57628;BME280;43451;49.060;10.616;2022-07-03T12:04:55;96913.81;;;27.68;38.27
57628;BME280;43451;49.060;10.616;2022-07-03T12:07:21;96912.81;;;27.71;38.66
57628;BME280;43451;49.060;10.616;2022-07-03T12:09:49;96910.06;;;27.77;39.22
57628;BME280;43451;49.060;10.616;2022-07-03T12:12:15;96911.28;;;27.70;41.63
57628;BME280;43451;49.060;10.616;2022-07-03T12:17:30;96912.63;;;27.81;37.96
57628;BME280;43451;49.060;10.616;2022-07-03T12:19:58;96914.16;;;27.82;38.76
57628;BME280;43451;49.060;10.616;2022-07-03T12:22:35;96911.88;;;27.86;39.96
57628;BME280;43451;49.060;10.616;2022-07-03T12:25:09;96910.13;;;27.94;40.64
57628;BME280;43451;49.060;10.616;2022-07-03T12:27:37;96916.25;;;28.09;39.83
57628;BME280;43451;49.060;10.616;2022-07-03T12:30:05;96911.72;;;28.29;38.85
57628;BME280;43451;49.060;10.616;2022-07-03T12:32:31;96899.75;;;28.11;38.38
57628;BME280;43451;49.060;10.616;2022-07-03T12:34:57;96897.69;;;28.06;38.03
57628;BME280;43451;49.060;10.616;2022-07-03T12:37:37;96894.91;;;28.00;36.31
57628;BME280;43451;49.060;10.616;2022-07-03T12:40:05;96886.78;;;28.19;37.64
57628;BME280;43451;49.060;10.616;2022-07-03T12:42:30;96888.59;;;28.11;38.17
57628;BME280;43451;49.060;10.616;2022-07-03T12:45:00;96882.00;;;28.37;39.67
57628;BME280;43451;49.060;10.616;2022-07-03T12:47:27;96885.59;;;28.43;36.89
57628;BME280;43451;49.060;10.616;2022-07-03T12:50:00;96883.31;;;28.58;38.39
57628;BME280;43451;49.060;10.616;2022-07-03T12:52:30;96886.34;;;28.49;37.45
57628;BME280;43451;49.060;10.616;2022-07-03T12:54:58;96886.59;;;28.51;34.95
57628;BME280;43451;49.060;10.616;2022-07-03T12:57:24;96891.16;;;28.54;35.54
57628;BME280;43451;49.060;10.616;2022-07-03T13:00:09;96872.88;;;28.64;31.16
57628;BME280;43451;49.060;10.616;2022-07-03T13:02:37;96874.41;;;28.71;32.32
57628;BME280;43451;49.060;10.616;2022-07-03T13:05:13;96873.34;;;28.80;32.67
57628;BME280;43451;49.060;10.616;2022-07-03T13:07:40;96871.03;;;28.95;34.33
57628;BME280;43451;49.060;10.616;2022-07-03T13:10:06;96865.97;;;28.82;36.07
57628;BME280;43451;49.060;10.616;2022-07-03T13:12:32;96865.47;;;28.84;33.37
57628;BME280;43451;49.060;10.616;2022-07-03T13:14:58;96868.53;;;28.75;33.88
57628;BME280;43451;49.060;10.616;2022-07-03T13:20:14;96861.69;;;28.64;32.09
57628;BME280;43451;49.060;10.616;2022-07-03T13:22:39;96864.22;;;28.62;32.46
57628;BME280;43451;49.060;10.616;2022-07-03T13:25:05;96865.75;;;28.63;33.34
57628;BME280;43451;49.060;10.616;2022-07-03T13:27:30;96855.06;;;28.84;32.35
57628;BME280;43451;49.060;10.616;2022-07-03T13:29:56;96862.91;;;28.86;32.67
57628;BME280;43451;49.060;10.616;2022-07-03T13:32:21;96855.00;;;28.96;32.31
57628;BME280;43451;49.060;10.616;2022-07-03T13:34:46;96854.53;;;28.86;32.77
57628;BME280;43451;49.060;10.616;2022-07-03T13:37:12;96855.28;;;28.98;33.60
57628;BME280;43451;49.060;10.616;2022-07-03T13:39:37;96852.75;;;29.05;33.48
57628;BME280;43451;49.060;10.616;2022-07-03T13:42:03;96858.56;;;29.07;34.34
57628;BME280;43451;49.060;10.616;2022-07-03T13:44:29;96849.69;;;29.09;31.84